createdAt,value
2018-06-09T00:00:15.088Z,97.90
2018-06-09T00:02:43.946Z,98.20
2018-06-09T00:05:12.800Z,97.00
2018-06-09T00:07:41.730Z,96.80
2018-06-09T00:10:10.624Z,96.50
2018-06-09T00:12:39.445Z,96.90
2018-06-09T00:15:08.390Z,96.60
2018-06-09T00:17:37.321Z,96.90
2018-06-09T00:20:06.249Z,96.30
2018-06-09T00:22:35.229Z,96.10
2018-06-09T00:25:04.094Z,97.20
2018-06-09T00:27:33.030Z,97.80
2018-06-09T00:30:01.921Z,98.10
2018-06-09T00:32:30.891Z,99.00
2018-06-09T00:34:59.880Z,99.20
2018-06-09T00:37:28.785Z,99.80
2018-06-09T00:39:57.701Z,99.90
2018-06-09T00:42:26.642Z,99.90
2018-06-09T00:44:55.486Z,99.90
2018-06-09T00:47:24.379Z,99.90
2018-06-09T00:49:53.280Z,99.90
2018-06-09T00:54:50.845Z,99.90
2018-06-09T00:57:19.719Z,99.90
2018-06-09T00:59:48.697Z,99.90
2018-06-09T01:02:17.593Z,99.90
2018-06-09T01:04:47.404Z,99.90
2018-06-09T01:07:16.313Z,99.90
2018-06-09T01:09:45.300Z,99.90
2018-06-09T01:12:14.196Z,99.90
2018-06-09T01:14:43.136Z,99.90
2018-06-09T01:17:12.087Z,99.90
2018-06-09T01:22:09.468Z,99.90
2018-06-09T01:24:40.059Z,99.90
2018-06-09T01:27:09.062Z,99.90
2018-06-09T01:29:38.037Z,99.90
2018-06-09T01:32:07.016Z,99.90
2018-06-09T01:34:35.949Z,99.90
2018-06-09T01:37:04.894Z,99.90
2018-06-09T01:39:33.792Z,99.90
2018-06-09T01:42:02.707Z,99.90
2018-06-09T01:44:31.599Z,99.90
2018-06-09T01:47:00.437Z,99.90
2018-06-09T01:49:29.307Z,99.90
2018-06-09T01:51:58.520Z,99.90
2018-06-09T01:54:27.771Z,99.90
2018-06-09T01:56:56.660Z,99.90
2018-06-09T01:59:25.519Z,99.90
2018-06-09T02:01:54.406Z,99.90
2018-06-09T02:04:23.372Z,99.90
2018-06-09T02:06:52.221Z,99.90
2018-06-09T02:09:21.134Z,99.90
2018-06-09T02:14:19.604Z,99.90
2018-06-09T02:16:48.833Z,99.90
2018-06-09T02:19:17.720Z,99.90
2018-06-09T02:21:46.704Z,99.90
2018-06-09T02:26:44.374Z,99.90
2018-06-09T02:29:13.451Z,99.90
2018-06-09T02:31:42.328Z,99.90
2018-06-09T02:34:11.197Z,99.90
2018-06-09T02:36:40.102Z,99.90
2018-06-09T02:39:09.308Z,99.90
2018-06-09T02:41:38.437Z,99.90
2018-06-09T02:44:07.330Z,99.90
2018-06-09T02:49:04.990Z,99.90
2018-06-09T02:51:33.865Z,99.90
2018-06-09T02:54:02.797Z,99.90
2018-06-09T02:59:00.129Z,99.90
2018-06-09T03:01:29.102Z,99.90
2018-06-09T03:03:58.061Z,99.90
2018-06-09T03:06:26.901Z,99.90
2018-06-09T03:08:56.795Z,99.90
2018-06-09T03:11:25.793Z,99.90
2018-06-09T03:13:54.661Z,99.90
2018-06-09T03:16:23.575Z,99.90
2018-06-09T03:18:52.498Z,99.90
2018-06-09T03:21:21.344Z,99.90
2018-06-09T03:23:50.321Z,99.90
2018-06-09T03:26:19.137Z,99.90
2018-06-09T03:28:48.067Z,99.90
2018-06-09T03:33:45.464Z,99.90
2018-06-09T03:36:14.377Z,99.90
2018-06-09T03:38:43.334Z,99.90
2018-06-09T03:43:40.842Z,99.90
2018-06-09T03:46:09.808Z,99.90
2018-06-09T03:48:38.739Z,99.90
2018-06-09T03:51:07.665Z,99.90
2018-06-09T03:56:05.137Z,99.90
2018-06-09T04:01:02.470Z,99.90
2018-06-09T04:03:31.449Z,99.90
2018-06-09T04:06:00.414Z,99.90
2018-06-09T04:08:29.319Z,99.90
2018-06-09T04:11:04.677Z,99.90
2018-06-09T04:13:33.556Z,99.90
2018-06-09T04:16:02.515Z,99.90
2018-06-09T04:18:32.545Z,99.90
2018-06-09T04:21:01.413Z,99.90
2018-06-09T04:25:58.837Z,99.90
2018-06-09T04:28:27.842Z,99.90
2018-06-09T04:30:56.793Z,99.90
2018-06-09T04:33:25.707Z,99.90
2018-06-09T04:35:54.619Z,99.90
2018-06-09T04:38:23.549Z,99.90
2018-06-09T04:43:20.988Z,99.90
2018-06-09T04:45:49.932Z,99.90
2018-06-09T04:48:18.747Z,99.90
2018-06-09T04:50:47.622Z,99.90
2018-06-09T04:53:16.515Z,99.90
2018-06-09T04:55:45.370Z,99.90
2018-06-09T04:58:14.318Z,99.90
2018-06-09T05:00:43.252Z,99.90
2018-06-09T05:03:12.139Z,99.90
2018-06-09T05:05:41.050Z,99.90
2018-06-09T05:08:10.032Z,99.90
2018-06-09T05:10:38.953Z,99.90
2018-06-09T05:13:07.965Z,99.90
2018-06-09T05:15:36.964Z,99.90
2018-06-09T05:18:06.195Z,99.90
2018-06-09T05:23:03.625Z,99.90
2018-06-09T05:25:32.927Z,99.90
2018-06-09T05:28:02.090Z,99.90
2018-06-09T05:30:31.108Z,99.90
2018-06-09T05:33:00.046Z,99.90
2018-06-09T05:35:28.981Z,99.90
2018-06-09T05:37:57.945Z,99.90
2018-06-09T05:40:27.850Z,99.90
2018-06-09T05:42:56.801Z,99.90
2018-06-09T05:45:25.781Z,99.90
2018-06-09T05:47:54.793Z,99.90
2018-06-09T05:50:23.855Z,99.90
2018-06-09T05:52:52.741Z,99.90
2018-06-09T05:55:21.634Z,99.90
2018-06-09T05:57:50.581Z,99.90
2018-06-09T06:05:16.551Z,99.90
2018-06-09T06:07:45.456Z,99.90
2018-06-09T06:10:14.464Z,99.90
2018-06-09T06:12:43.520Z,99.90
2018-06-09T06:15:12.417Z,99.90
2018-06-09T06:17:41.289Z,99.90
2018-06-09T06:22:38.619Z,99.90
2018-06-09T06:25:07.633Z,99.90
2018-06-09T06:27:36.726Z,99.90
2018-06-09T06:30:05.661Z,99.90
2018-06-09T06:32:34.603Z,99.90
2018-06-09T06:35:03.545Z,99.90
2018-06-09T06:37:32.350Z,99.90
2018-06-09T06:40:01.240Z,99.90
2018-06-09T06:42:30.112Z,99.90
2018-06-09T06:44:59.007Z,99.90
2018-06-09T06:47:27.885Z,99.90
2018-06-09T06:49:56.758Z,99.90
2018-06-09T06:52:25.719Z,99.90
2018-06-09T06:54:54.667Z,99.90
2018-06-09T06:57:23.518Z,99.90
2018-06-09T07:02:20.944Z,99.90
2018-06-09T07:04:49.900Z,99.90
2018-06-09T07:07:18.757Z,99.90
2018-06-09T07:09:47.778Z,99.90
2018-06-09T07:12:16.734Z,99.90
2018-06-09T07:14:45.644Z,99.90
2018-06-09T07:19:43.168Z,99.90
2018-06-09T07:22:12.119Z,99.90
2018-06-09T07:24:41.000Z,99.90
2018-06-09T07:29:38.445Z,99.90
2018-06-09T07:32:07.427Z,99.90
2018-06-09T07:34:36.290Z,99.90
2018-06-09T07:37:05.138Z,99.90
2018-06-09T07:39:33.990Z,99.90
2018-06-09T07:42:02.931Z,99.90
2018-06-09T07:47:00.300Z,99.90
2018-06-09T07:51:58.536Z,99.90
2018-06-09T07:54:27.602Z,99.90
2018-06-09T07:56:57.664Z,99.90
2018-06-09T07:59:26.596Z,99.90
2018-06-09T08:04:24.247Z,99.90
2018-06-09T08:06:53.398Z,99.90
2018-06-09T08:09:22.294Z,99.90
2018-06-09T08:11:51.200Z,99.90
2018-06-09T08:14:20.127Z,99.90
2018-06-09T08:19:18.860Z,99.90
2018-06-09T08:21:47.726Z,99.90
2018-06-09T08:26:45.014Z,99.90
2018-06-09T08:29:13.951Z,99.90
2018-06-09T08:31:43.088Z,99.90
2018-06-09T08:34:12.070Z,99.90
2018-06-09T08:39:10.313Z,99.90
2018-06-09T08:41:39.173Z,99.40
2018-06-09T08:44:08.317Z,98.80
2018-06-09T08:46:37.316Z,98.10
2018-06-09T08:49:06.492Z,98.40
2018-06-09T08:51:35.845Z,97.80
2018-06-09T08:54:05.184Z,98.40
2018-06-09T08:56:34.147Z,98.90
2018-06-09T08:59:03.311Z,96.60
2018-06-09T09:01:32.270Z,95.60
2018-06-09T09:04:01.122Z,94.90
2018-06-09T09:06:30.010Z,95.90
2018-06-09T09:08:58.901Z,95.20
2018-06-09T09:11:27.871Z,93.80
2018-06-09T09:16:25.438Z,93.70
2018-06-09T09:21:22.799Z,92.70
2018-06-09T09:23:51.663Z,93.80
2018-06-09T09:26:20.530Z,92.80
2018-06-09T09:28:50.034Z,92.50
2018-06-09T09:31:18.880Z,92.60
2018-06-09T09:33:47.828Z,92.10
2018-06-09T09:36:16.705Z,92.60
2018-06-09T09:38:45.620Z,92.00
2018-06-09T09:41:14.469Z,91.00
2018-06-09T09:43:43.305Z,91.20
2018-06-09T09:46:12.159Z,91.30
2018-06-09T09:48:41.012Z,91.90
2018-06-09T09:56:06.883Z,91.10
2018-06-09T09:58:35.769Z,89.50
2018-06-09T10:01:04.620Z,90.40
2018-06-09T10:03:33.486Z,90.30
2018-06-09T10:06:02.396Z,90.80
2018-06-09T10:08:31.216Z,90.50
2018-06-09T10:15:57.101Z,87.10
2018-06-09T10:18:25.948Z,83.90
2018-06-09T10:20:54.897Z,83.40
2018-06-09T10:23:23.769Z,82.40
2018-06-09T10:25:52.605Z,77.30
2018-06-09T10:28:21.569Z,75.70
2018-06-09T10:30:50.509Z,76.00
2018-06-09T10:33:19.352Z,76.50
2018-06-09T10:35:48.207Z,75.70
2018-06-09T10:38:17.107Z,78.40
2018-06-09T10:40:45.976Z,78.10
2018-06-09T10:45:43.374Z,76.20
2018-06-09T10:48:12.226Z,75.40
2018-06-09T10:53:09.593Z,77.20
2018-06-09T10:58:06.884Z,76.60
2018-06-09T11:00:35.773Z,75.20
2018-06-09T11:03:04.682Z,75.60
2018-06-09T11:05:33.555Z,74.40
2018-06-09T11:08:02.459Z,68.80
2018-06-09T11:10:31.336Z,69.80
2018-06-09T11:13:00.328Z,70.00
2018-06-09T11:15:29.210Z,69.00
2018-06-09T11:17:58.100Z,69.20
2018-06-09T11:20:26.932Z,67.50
2018-06-09T11:22:55.866Z,70.10
2018-06-09T11:25:24.823Z,68.50
2018-06-09T11:27:53.693Z,69.70
2018-06-09T11:30:22.615Z,68.10
2018-06-09T11:32:51.520Z,68.20
2018-06-09T11:37:48.899Z,70.90
2018-06-09T11:45:14.673Z,64.50
2018-06-09T11:47:43.536Z,64.60
2018-06-09T11:52:40.872Z,64.00
2018-06-09T11:55:09.757Z,64.20
2018-06-09T11:57:38.619Z,63.50
2018-06-09T12:00:07.612Z,63.80
2018-06-09T12:02:36.610Z,63.50
2018-06-09T12:05:05.563Z,62.90
2018-06-09T12:12:31.737Z,62.10
2018-06-09T12:15:00.678Z,63.50
2018-06-09T12:17:29.550Z,59.70
2018-06-09T12:19:58.427Z,62.40
2018-06-09T12:22:27.294Z,56.80
2018-06-09T12:24:56.144Z,56.50
2018-06-09T12:27:25.000Z,57.50
2018-06-09T12:29:53.870Z,56.90
2018-06-09T12:32:23.152Z,56.80
2018-06-09T12:34:52.011Z,57.80
2018-06-09T12:37:20.876Z,55.60
2018-06-09T12:39:49.717Z,54.10
2018-06-09T12:44:46.940Z,54.20
2018-06-09T12:47:15.829Z,54.00
2018-06-09T12:49:44.731Z,53.70
2018-06-09T12:52:13.626Z,53.50
2018-06-09T12:54:42.515Z,52.60
2018-06-09T12:57:11.391Z,53.10
2018-06-09T12:59:40.213Z,53.40
2018-06-09T13:04:37.494Z,52.30
2018-06-09T13:07:06.664Z,53.70
2018-06-09T13:09:35.559Z,52.50
2018-06-09T13:12:04.545Z,51.00
2018-06-09T13:14:33.414Z,52.40
2018-06-09T13:17:02.317Z,50.10
2018-06-09T13:19:31.287Z,50.80
2018-06-09T13:22:00.509Z,50.80
2018-06-09T13:24:29.590Z,50.20
2018-06-09T13:26:58.930Z,50.20
2018-06-09T13:29:27.807Z,48.60
2018-06-09T13:36:53.726Z,47.30
2018-06-09T13:39:22.585Z,49.20
2018-06-09T13:41:51.473Z,47.90
2018-06-09T13:44:20.321Z,46.20
2018-06-09T13:46:49.198Z,47.00
2018-06-09T13:49:18.120Z,46.80
2018-06-09T13:51:46.982Z,46.70
2018-06-09T13:54:15.907Z,43.10
2018-06-09T13:56:44.744Z,45.70
2018-06-09T13:59:13.679Z,46.10
2018-06-09T14:04:11.865Z,47.20
2018-06-09T14:06:40.804Z,47.00
2018-06-09T14:09:09.660Z,46.30
2018-06-09T14:11:38.573Z,45.00
2018-06-09T14:14:07.481Z,44.80
2018-06-09T14:16:36.356Z,45.70
2018-06-09T14:19:05.350Z,45.30
2018-06-09T14:21:34.331Z,46.10
2018-06-09T14:24:03.173Z,45.70
2018-06-09T14:26:32.116Z,43.60
2018-06-09T14:29:01.022Z,44.70
2018-06-09T14:31:30.894Z,45.20
2018-06-09T14:33:59.809Z,43.10
2018-06-09T14:36:28.741Z,42.30
2018-06-09T14:38:57.646Z,42.70
2018-06-09T14:41:26.515Z,43.50
2018-06-09T14:43:55.369Z,42.90
2018-06-09T14:46:24.170Z,42.60
2018-06-09T14:48:54.384Z,42.30
2018-06-09T14:51:23.257Z,41.30
2018-06-09T14:53:52.217Z,42.60
2018-06-09T14:56:21.071Z,41.30
2018-06-09T14:58:49.953Z,41.90
2018-06-09T15:01:18.800Z,42.60
2018-06-09T15:03:47.675Z,42.90
2018-06-09T15:06:16.599Z,44.40
2018-06-09T15:08:45.513Z,44.50
2018-06-09T15:11:14.423Z,44.70
2018-06-09T15:13:43.215Z,44.10
2018-06-09T15:16:12.079Z,44.90
2018-06-09T15:18:40.949Z,44.40
2018-06-09T15:21:09.811Z,44.40
2018-06-09T15:26:07.195Z,43.90
2018-06-09T15:28:36.167Z,44.30
2018-06-09T15:33:33.572Z,43.70
2018-06-09T15:36:02.536Z,43.30
2018-06-09T15:45:57.910Z,47.00
2018-06-09T15:48:26.806Z,47.90
2018-06-09T15:50:55.673Z,48.30
2018-06-09T15:53:24.528Z,47.40
2018-06-09T15:55:53.434Z,47.80
2018-06-09T15:58:22.269Z,46.80
2018-06-09T16:00:51.080Z,47.10
2018-06-09T16:03:19.942Z,46.90
2018-06-09T16:05:48.777Z,47.10
2018-06-09T16:08:17.710Z,46.80
2018-06-09T16:10:46.665Z,47.40
2018-06-09T16:13:15.472Z,47.20
2018-06-09T16:18:12.736Z,48.00
2018-06-09T16:20:41.569Z,48.50
2018-06-09T16:23:10.437Z,48.70
2018-06-09T16:25:39.293Z,49.70
2018-06-09T16:28:08.298Z,49.90
2018-06-09T16:30:37.200Z,50.40
2018-06-09T16:33:06.079Z,51.20
2018-06-09T16:35:34.993Z,52.10
2018-06-09T16:38:03.856Z,52.90
2018-06-09T16:43:01.236Z,53.30
2018-06-09T16:47:58.697Z,54.20
2018-06-09T16:52:56.053Z,54.90
2018-06-09T16:55:24.976Z,55.20
2018-06-09T16:57:53.915Z,55.90
2018-06-09T17:00:22.841Z,56.30
2018-06-09T17:05:20.168Z,57.00
2018-06-09T17:07:49.035Z,57.20
2018-06-09T17:10:17.883Z,57.20
2018-06-09T17:15:15.402Z,57.40
2018-06-09T17:17:44.256Z,57.70
2018-06-09T17:22:41.601Z,58.00
2018-06-09T17:25:10.504Z,57.80
2018-06-09T17:27:39.472Z,58.00
2018-06-09T17:30:08.382Z,57.20
2018-06-09T17:32:37.359Z,57.00
2018-06-09T17:35:06.343Z,57.70
2018-06-09T17:37:35.235Z,59.10
2018-06-09T17:40:04.208Z,61.20
2018-06-09T17:42:33.136Z,63.20
2018-06-09T17:45:02.042Z,63.20
2018-06-09T17:49:59.537Z,62.20
2018-06-09T17:52:28.399Z,60.50
2018-06-09T17:57:25.697Z,59.00
2018-06-09T17:59:54.491Z,57.40
2018-06-09T18:02:23.415Z,58.00
2018-06-09T18:04:52.295Z,58.50
2018-06-09T18:07:21.149Z,59.40
2018-06-09T18:09:50.455Z,59.70
2018-06-09T18:12:19.465Z,60.30
2018-06-09T18:14:48.301Z,60.50
2018-06-09T18:17:17.118Z,61.30
2018-06-09T18:19:45.949Z,62.00
2018-06-09T18:22:14.819Z,62.20
2018-06-09T18:24:43.660Z,62.10
2018-06-09T18:29:41.046Z,62.30
2018-06-09T18:32:09.896Z,62.20
2018-06-09T18:34:38.740Z,62.70
2018-06-09T18:37:07.581Z,62.60
2018-06-09T18:39:36.435Z,63.00
2018-06-09T18:42:05.383Z,63.70
2018-06-09T18:47:02.776Z,65.10
2018-06-09T18:49:31.797Z,65.60
2018-06-09T18:52:00.658Z,65.80
2018-06-09T18:54:29.535Z,65.90
2018-06-09T18:59:27.037Z,66.30
2018-06-09T19:01:55.924Z,67.10
2018-06-09T19:04:24.798Z,68.00
2018-06-09T19:06:53.745Z,68.30
2018-06-09T19:09:22.611Z,68.50
2018-06-09T19:11:51.469Z,68.90
2018-06-09T19:14:21.456Z,69.20
2018-06-09T19:16:50.323Z,69.90
2018-06-09T19:19:19.172Z,70.00
2018-06-09T19:21:48.068Z,70.40
2018-06-09T19:24:18.224Z,70.00
2018-06-09T19:26:47.095Z,70.30
2018-06-09T19:29:16.009Z,71.00
2018-06-09T19:31:44.990Z,70.00
2018-06-09T19:34:13.908Z,70.30
2018-06-09T19:39:11.206Z,69.70
2018-06-09T19:41:40.136Z,70.20
2018-06-09T19:44:08.953Z,70.60
2018-06-09T19:49:06.193Z,70.30
2018-06-09T19:51:36.357Z,71.20
2018-06-09T19:56:33.953Z,72.10
2018-06-09T19:59:02.860Z,72.30
2018-06-09T20:01:31.826Z,72.90
2018-06-09T20:04:00.809Z,72.60
2018-06-09T20:06:30.250Z,72.80
2018-06-09T20:08:59.153Z,72.80
2018-06-09T20:11:28.061Z,73.30
2018-06-09T20:13:56.975Z,73.20
2018-06-09T20:18:54.345Z,80.20
2018-06-09T20:21:23.245Z,86.20
2018-06-09T20:23:52.129Z,90.00
2018-06-09T20:31:18.240Z,91.30
2018-06-09T20:33:47.169Z,91.80
2018-06-09T20:38:44.716Z,91.90
2018-06-09T20:41:13.593Z,90.60
2018-06-09T20:43:42.511Z,91.00
2018-06-09T20:46:11.382Z,91.70
2018-06-09T20:48:40.393Z,92.30
2018-06-09T20:51:09.400Z,93.00
2018-06-09T20:53:38.400Z,92.40
2018-06-09T20:56:07.327Z,93.00
2018-06-09T20:58:39.197Z,92.80
2018-06-09T21:01:08.328Z,92.80
2018-06-09T21:03:37.277Z,92.90
2018-06-09T21:06:06.087Z,92.80
2018-06-09T21:08:34.954Z,92.00
2018-06-09T21:11:03.887Z,92.00
2018-06-09T21:13:32.873Z,92.20
2018-06-09T21:16:01.800Z,91.90
2018-06-09T21:18:30.754Z,91.20
2018-06-09T21:20:59.607Z,91.40
2018-06-09T21:23:28.535Z,91.40
2018-06-09T21:25:57.522Z,91.10
2018-06-09T21:28:28.023Z,91.00
2018-06-09T21:31:01.071Z,90.90
2018-06-09T21:33:46.184Z,91.50
2018-06-09T21:36:19.199Z,91.30
2018-06-09T21:38:53.320Z,92.80
2018-06-09T21:43:51.941Z,96.10
2018-06-09T21:46:26.026Z,96.60
2018-06-09T21:48:54.885Z,97.50
2018-06-09T21:51:23.750Z,98.00
2018-06-09T21:53:52.584Z,97.50
2018-06-09T21:56:21.524Z,97.50
2018-06-09T21:58:50.488Z,97.00
2018-06-09T22:03:47.880Z,95.70
2018-06-09T22:06:16.838Z,95.40
2018-06-09T22:08:45.726Z,95.50
2018-06-09T22:11:21.462Z,94.80
2018-06-09T22:13:50.480Z,95.00
2018-06-09T22:18:47.912Z,95.60
2018-06-09T22:21:16.820Z,96.70
2018-06-09T22:23:45.710Z,97.00
2018-06-09T22:26:16.018Z,97.50
2018-06-09T22:28:45.243Z,97.60
2018-06-09T22:31:14.270Z,97.70
2018-06-09T22:33:43.234Z,97.50
2018-06-09T22:38:40.704Z,97.90
2018-06-09T22:41:09.584Z,98.20
2018-06-09T22:43:38.529Z,98.90
2018-06-09T22:46:07.612Z,99.40
2018-06-09T22:48:36.522Z,99.40
2018-06-09T22:51:05.383Z,99.90
2018-06-09T22:53:34.257Z,99.90
2018-06-09T23:01:00.309Z,99.90
2018-06-09T23:05:58.005Z,99.90
2018-06-09T23:08:27.096Z,99.90
2018-06-09T23:10:56.159Z,99.90
2018-06-09T23:13:26.177Z,99.50
2018-06-09T23:15:55.005Z,99.30
2018-06-09T23:18:24.048Z,99.50
2018-06-09T23:20:52.867Z,98.90
2018-06-09T23:25:50.161Z,98.20
2018-06-09T23:28:19.047Z,98.90
2018-06-09T23:30:48.039Z,99.90
2018-06-09T23:33:16.846Z,99.90
2018-06-09T23:35:45.777Z,99.90
2018-06-09T23:38:14.762Z,99.90
2018-06-09T23:40:43.557Z,99.90
2018-06-09T23:43:12.368Z,99.90
2018-06-09T23:48:09.735Z,99.90
2018-06-09T23:53:07.122Z,99.90
2018-06-09T23:55:35.952Z,99.90
2018-06-09T23:58:04.864Z,99.90
